createdAt,value
2022-10-19T00:01:24.923Z,54.17
2022-10-19T00:05:41.091Z,53.20
2022-10-19T00:09:57.291Z,54.52
2022-10-19T00:14:16.195Z,54.06
2022-10-19T00:18:32.321Z,54.57
2022-10-19T00:22:50.978Z,54.29
2022-10-19T00:27:07.128Z,53.61
2022-10-19T00:31:23.415Z,53.69
2022-10-19T00:35:42.888Z,54.37
2022-10-19T00:39:59.096Z,54.77
2022-10-19T00:44:16.118Z,54.45
2022-10-19T00:48:33.452Z,55.40
2022-10-19T00:52:49.527Z,55.46
2022-10-19T00:57:06.887Z,54.70
2022-10-19T01:01:24.821Z,55.23
2022-10-19T01:05:41.431Z,54.83
2022-10-19T01:09:57.910Z,54.06
2022-10-19T01:14:44.662Z,54.36
2022-10-19T01:19:11.031Z,53.78
2022-10-19T01:23:59.577Z,54.50
2022-10-19T01:28:28.719Z,53.47
2022-10-19T01:33:04.871Z,52.53
2022-10-19T01:37:37.830Z,54.41
2022-10-19T01:42:22.700Z,54.54
2022-10-19T01:46:50.177Z,54.24
2022-10-19T01:51:15.151Z,54.67
2022-10-19T01:55:32.537Z,55.22
2022-10-19T01:59:49.549Z,54.71
2022-10-19T02:04:05.938Z,54.84
2022-10-19T02:08:27.949Z,54.28
2022-10-19T02:12:44.596Z,53.56
2022-10-19T02:17:06.233Z,53.12
2022-10-19T02:21:22.546Z,53.25
2022-10-19T02:25:38.627Z,52.96
2022-10-19T02:29:54.955Z,52.28
2022-10-19T02:34:11.676Z,52.28
2022-10-19T02:38:27.991Z,52.69
2022-10-19T02:43:00.711Z,52.59
2022-10-19T02:47:25.712Z,53.03
2022-10-19T02:52:02.568Z,54.26
2022-10-19T02:56:18.716Z,53.74
2022-10-19T03:00:35.029Z,54.00
2022-10-19T03:04:51.113Z,54.09
2022-10-19T03:09:07.290Z,54.22
2022-10-19T03:13:23.390Z,54.97
2022-10-19T03:17:39.488Z,54.19
2022-10-19T03:21:55.734Z,54.45
2022-10-19T03:26:14.608Z,54.69
2022-10-19T03:30:30.818Z,54.57
2022-10-19T03:34:46.948Z,53.68
2022-10-19T03:39:14.064Z,53.72
2022-10-19T03:43:30.216Z,54.16
2022-10-19T03:47:50.476Z,54.75
2022-10-19T03:52:06.740Z,55.64
2022-10-19T03:56:24.979Z,57.55
2022-10-19T04:00:41.110Z,56.57
2022-10-19T04:04:58.324Z,56.23
2022-10-19T04:09:17.134Z,55.29
2022-10-19T04:13:33.957Z,55.80
2022-10-19T04:17:50.139Z,55.61
2022-10-19T04:22:06.261Z,56.13
2022-10-19T04:26:22.498Z,54.62
2022-10-19T04:30:38.746Z,56.74
2022-10-19T04:34:54.844Z,57.81
2022-10-19T04:39:10.981Z,59.39
2022-10-19T04:43:27.102Z,57.88
2022-10-19T04:47:43.184Z,57.97
2022-10-19T04:51:59.292Z,58.27
2022-10-19T04:56:20.787Z,57.22
2022-10-19T05:00:39.125Z,57.22
2022-10-19T05:04:55.255Z,58.37
2022-10-19T05:09:11.754Z,57.54
2022-10-19T05:13:27.873Z,58.37
2022-10-19T05:17:44.166Z,57.56
2022-10-19T05:22:00.349Z,57.36
2022-10-19T05:26:18.983Z,57.51
2022-10-19T05:30:35.281Z,58.02
2022-10-19T05:34:51.460Z,57.43
2022-10-19T05:39:15.914Z,58.09
2022-10-19T05:43:32.067Z,58.13
2022-10-19T05:47:48.238Z,58.64
2022-10-19T05:52:04.414Z,58.81
2022-10-19T05:56:26.238Z,60.01
2022-10-19T06:00:42.404Z,67.30
2022-10-19T06:04:58.619Z,59.73
2022-10-19T06:09:14.924Z,57.68
2022-10-19T06:13:31.150Z,54.87
2022-10-19T06:17:47.232Z,54.27
2022-10-19T06:22:03.365Z,54.72
2022-10-19T06:26:20.758Z,55.22
2022-10-19T06:30:41.117Z,55.94
2022-10-19T06:34:57.317Z,55.91
2022-10-19T06:39:13.764Z,55.84
2022-10-19T06:43:29.990Z,56.21
2022-10-19T06:52:07.877Z,57.86
2022-10-19T06:56:27.525Z,57.93
2022-10-19T07:00:43.681Z,57.35
2022-10-19T07:05:04.470Z,58.18
2022-10-19T07:09:23.163Z,58.06
2022-10-19T07:13:39.643Z,56.88
2022-10-19T07:17:55.785Z,58.07
2022-10-19T07:22:15.532Z,62.27
2022-10-19T07:26:35.100Z,60.12
2022-10-19T07:30:51.247Z,60.84
2022-10-19T07:35:07.732Z,59.98
2022-10-19T07:39:23.983Z,58.69
2022-10-19T07:43:40.718Z,58.55
2022-10-19T07:47:57.066Z,60.12
2022-10-19T07:52:13.310Z,57.89
2022-10-19T07:56:30.340Z,55.57
2022-10-19T08:00:46.765Z,55.00
2022-10-19T08:05:06.206Z,54.56
2022-10-19T08:09:50.781Z,54.99
2022-10-19T08:14:02.922Z,57.45
2022-10-19T08:18:19.174Z,57.01
2022-10-19T08:22:35.886Z,55.49
2022-10-19T08:26:52.446Z,56.15
2022-10-19T08:31:16.947Z,54.67
2022-10-19T08:35:33.072Z,52.49
2022-10-19T08:39:49.376Z,52.05
2022-10-19T08:44:23.723Z,52.94
2022-10-19T08:48:43.166Z,52.59
2022-10-19T08:53:05.957Z,51.34
2022-10-19T08:57:27.058Z,50.19
2022-10-19T09:02:03.813Z,48.33
2022-10-19T09:06:27.745Z,47.01
2022-10-19T09:10:46.404Z,46.41
2022-10-19T09:15:07.280Z,43.19
2022-10-19T09:19:26.387Z,41.88
2022-10-19T09:23:58.991Z,41.81
2022-10-19T09:28:40.539Z,40.41
2022-10-19T09:33:01.368Z,39.96
2022-10-19T09:37:25.659Z,39.20
2022-10-19T09:41:55.948Z,37.64
2022-10-19T09:46:20.320Z,36.39
2022-10-19T09:50:36.722Z,36.35
2022-10-19T09:55:04.877Z,35.88
2022-10-19T09:59:28.557Z,35.66
2022-10-19T10:03:53.753Z,35.55
2022-10-19T10:08:17.071Z,34.77
2022-10-19T10:12:35.065Z,33.06
2022-10-19T10:17:02.670Z,32.63
2022-10-19T10:21:34.847Z,30.81
2022-10-19T10:25:51.050Z,32.65
2022-10-19T10:30:10.860Z,30.77
2022-10-19T10:35:01.314Z,32.61
2022-10-19T10:39:18.029Z,30.81
2022-10-19T10:43:36.593Z,32.26
2022-10-19T10:47:53.580Z,33.33
2022-10-19T10:52:17.570Z,32.71
2022-10-19T10:56:34.588Z,31.31
2022-10-19T11:00:52.031Z,31.36
2022-10-19T11:05:21.818Z,30.65
2022-10-19T11:09:43.307Z,32.05
2022-10-19T11:14:46.832Z,31.17
2022-10-19T11:19:19.417Z,31.42
2022-10-19T11:23:57.718Z,30.61
2022-10-19T11:28:13.921Z,29.95
2022-10-19T11:32:47.875Z,29.73
2022-10-19T11:37:19.367Z,28.99
2022-10-19T11:41:56.804Z,27.60
2022-10-19T11:46:26.283Z,28.45
2022-10-19T11:51:17.296Z,27.49
2022-10-19T11:55:52.793Z,29.57
2022-10-19T12:00:37.569Z,28.41
2022-10-19T12:05:28.198Z,26.67
2022-10-19T12:10:12.882Z,27.64
2022-10-19T12:14:33.408Z,28.38
2022-10-19T12:19:00.679Z,27.78
2022-10-19T12:23:34.509Z,27.71
2022-10-19T12:27:51.817Z,29.93
2022-10-19T12:32:08.447Z,29.66
2022-10-19T12:36:24.853Z,29.38
2022-10-19T12:41:08.298Z,28.94
2022-10-19T12:45:52.517Z,28.68
2022-10-19T12:50:08.940Z,27.99
2022-10-19T12:54:31.360Z,27.05
2022-10-19T12:58:50.929Z,27.54
2022-10-19T13:03:25.175Z,28.29
2022-10-19T13:07:48.182Z,28.18
2022-10-19T13:12:21.330Z,27.98
2022-10-19T13:16:57.568Z,26.81
2022-10-19T13:21:33.894Z,26.52
2022-10-19T13:26:10.153Z,27.49
2022-10-19T13:30:35.554Z,27.30
2022-10-19T13:34:51.801Z,27.11
2022-10-19T13:39:13.719Z,26.70
2022-10-19T13:43:54.028Z,26.01
2022-10-19T13:48:21.723Z,26.67
2022-10-19T13:52:40.652Z,27.21
2022-10-19T13:57:18.359Z,26.94
2022-10-19T14:02:13.339Z,26.83
2022-10-19T14:06:48.008Z,26.72
2022-10-19T14:11:34.088Z,26.56
2022-10-19T14:15:55.973Z,25.00
2022-10-19T14:20:32.599Z,24.69
2022-10-19T14:24:48.764Z,25.16
2022-10-19T14:29:04.970Z,25.04
2022-10-19T14:33:21.380Z,25.52
2022-10-19T14:37:38.129Z,24.56
2022-10-19T14:41:57.156Z,23.68
2022-10-19T14:46:16.535Z,22.69
2022-10-19T14:50:54.354Z,19.89
2022-10-19T14:55:20.249Z,17.28
2022-10-19T14:59:46.762Z,15.99
2022-10-19T15:04:03.754Z,15.55
2022-10-19T15:08:32.697Z,17.09
2022-10-19T15:12:51.258Z,17.29
2022-10-19T15:17:21.450Z,18.93
2022-10-19T15:21:38.058Z,20.99
2022-10-19T15:26:01.699Z,23.79
2022-10-19T15:30:32.948Z,24.33
2022-10-19T15:34:49.309Z,26.79
2022-10-19T15:43:57.679Z,30.36
2022-10-19T15:48:22.295Z,32.57
2022-10-19T15:52:38.498Z,33.03
2022-10-19T15:56:56.624Z,32.65
2022-10-19T16:01:19.318Z,35.04
2022-10-19T16:05:36.616Z,34.67
2022-10-19T16:09:53.460Z,35.72
2022-10-19T16:14:09.664Z,36.57
2022-10-19T16:18:26.004Z,37.10
2022-10-19T16:22:43.197Z,36.73
2022-10-19T16:26:59.453Z,37.81
2022-10-19T16:31:15.984Z,37.65
2022-10-19T16:35:32.236Z,38.04
2022-10-19T16:39:48.360Z,38.40
2022-10-19T16:44:04.583Z,38.61
2022-10-19T16:48:24.172Z,39.00
2022-10-19T16:52:40.466Z,39.45
2022-10-19T16:56:56.696Z,39.57
2022-10-19T17:01:19.055Z,40.44
2022-10-19T17:05:39.394Z,40.33
2022-10-19T17:09:55.799Z,41.59
2022-10-19T17:14:13.272Z,41.41
2022-10-19T17:18:29.493Z,43.14
2022-10-19T17:22:45.591Z,42.24
2022-10-19T17:27:03.562Z,42.62
2022-10-19T17:31:20.002Z,43.53
2022-10-19T17:35:36.237Z,43.52
2022-10-19T17:39:52.779Z,44.47
2022-10-19T17:44:08.881Z,43.38
2022-10-19T17:48:25.336Z,44.01
2022-10-19T17:52:41.510Z,44.08
2022-10-19T17:56:58.045Z,44.17
2022-10-19T18:01:15.386Z,44.60
2022-10-19T18:05:31.706Z,46.82
2022-10-19T18:09:48.185Z,46.51
2022-10-19T18:14:05.086Z,46.16
2022-10-19T18:18:23.214Z,46.18
2022-10-19T18:27:03.958Z,46.45
2022-10-19T18:31:25.723Z,46.84
2022-10-19T18:35:42.018Z,45.83
2022-10-19T18:39:58.116Z,44.01
2022-10-19T18:44:14.554Z,43.45
2022-10-19T18:48:30.845Z,42.07
2022-10-19T18:52:47.127Z,42.11
2022-10-19T18:57:03.316Z,42.41
2022-10-19T19:01:25.235Z,40.87
2022-10-19T19:05:41.486Z,41.78
2022-10-19T19:09:57.641Z,42.12
2022-10-19T19:14:18.868Z,41.26
2022-10-19T19:18:35.727Z,43.56
2022-10-19T19:22:51.969Z,43.89
2022-10-19T19:27:08.271Z,45.26
2022-10-19T19:31:25.206Z,45.78
2022-10-19T19:35:45.121Z,45.96
2022-10-19T19:40:01.253Z,46.90
2022-10-19T19:44:18.224Z,45.62
2022-10-19T19:48:34.357Z,46.01
2022-10-19T19:52:51.869Z,46.18
2022-10-19T19:57:08.210Z,45.90
2022-10-19T20:01:25.052Z,45.73
2022-10-19T20:05:41.698Z,45.61
2022-10-19T20:09:58.269Z,46.13
2022-10-19T20:14:14.544Z,46.19
2022-10-19T20:18:30.758Z,45.88
2022-10-19T20:22:48.043Z,46.08
2022-10-19T20:27:04.145Z,45.77
2022-10-19T20:31:21.177Z,45.71
2022-10-19T20:35:38.524Z,45.71
2022-10-19T20:39:54.611Z,45.90
2022-10-19T20:44:10.800Z,45.38
2022-10-19T20:48:26.936Z,45.18
2022-10-19T20:52:43.080Z,45.38
2022-10-19T20:56:59.550Z,46.14
2022-10-19T21:01:18.075Z,46.06
2022-10-19T21:05:37.482Z,45.96
2022-10-19T21:09:55.470Z,45.65
2022-10-19T21:14:14.148Z,48.93
2022-10-19T21:18:30.271Z,46.07
2022-10-19T21:22:46.439Z,45.57
2022-10-19T21:27:05.041Z,46.20
2022-10-19T21:31:23.286Z,46.02
2022-10-19T21:35:39.462Z,47.20
2022-10-19T21:39:55.616Z,49.96
2022-10-19T21:44:12.360Z,49.80
2022-10-19T21:48:29.662Z,48.51
2022-10-19T21:52:45.783Z,48.30
2022-10-19T21:57:03.163Z,48.56
2022-10-19T22:01:22.084Z,48.38
2022-10-19T22:05:38.450Z,48.90
2022-10-19T22:09:55.205Z,48.50
2022-10-19T22:14:12.833Z,49.58
2022-10-19T22:18:28.927Z,48.80
2022-10-19T22:22:45.118Z,49.30
2022-10-19T22:27:01.405Z,48.88
2022-10-19T22:31:17.558Z,49.83
2022-10-19T22:35:33.731Z,49.81
2022-10-19T22:39:49.872Z,49.49
2022-10-19T22:44:43.839Z,50.28
2022-10-19T22:48:59.962Z,49.24
2022-10-19T22:53:16.094Z,50.05
2022-10-19T22:57:32.232Z,49.41
2022-10-19T23:01:48.512Z,50.13
2022-10-19T23:06:05.219Z,50.46
2022-10-19T23:10:21.707Z,50.70
2022-10-19T23:14:37.821Z,50.24
2022-10-19T23:18:54.077Z,51.82
2022-10-19T23:23:10.576Z,51.80
2022-10-19T23:27:26.906Z,52.15
2022-10-19T23:31:43.488Z,52.60
2022-10-19T23:36:07.889Z,52.13
2022-10-19T23:40:24.020Z,51.36
2022-10-19T23:44:40.133Z,51.13
2022-10-19T23:48:56.239Z,51.69
2022-10-19T23:53:12.415Z,51.20
2022-10-19T23:57:28.608Z,51.95
